Main page
METAR-TAF:

METAR-TAF

Airports :

Yasuj Airport

Yasuj, Iran

latitude: 30-41-49N, longitude: 051-33E, elevation: 1825 m

Current weather observation

The report was made 36 minutes ago, at 03:00 UTC
Calm wind
Temperature 6°C
Humidity 93%
Pressure 1022 hPa
Visibility 10 km or more
Few clouds at a height of 3000 ft, Cumulonimbus.
Broken clouds at a height of 3500 ft
Overcast at a height of 7000 ft

METAR: OISY 030300Z 00000KT 9999 FEW030CB BKN035 OVC070 06/05 Q1022

Time: 07:06 (03:36 UTC)


TAF: missing

Weather observations and forecasts of more than 4000 airports (METAR and TAF reports).

The available stations are represented by yellow and red dots on the map.

Hover mouse over dot to see the name of the station.

Then click to see weather observations and forecasts.

To change the map : click on the green buttons with a black cross to zoom in, on the green button with a dash to zoom out, or on the green arrows for adjacent maps.


METAR-TAF: